Weather History for KMFV - November, 2012

Change the Weather History Date:

Saturday, November 3, 2012

  Actual Average (KWAL) Record (KWAL)
Temperature  
Mean Temperature 48 °F 54 °F  
Max Temperature 51 °F 63 °F 79 °F (1990)
Min Temperature 46 °F 44 °F 32 °F (1996)
Degree Days  
Heating Degree Days 16    
Month to date heating degree days  
Since 1 July heating degree days  
Cooling Degree Days 0    
Month to date cooling degree days  
Year to date cooling degree days  
Moisture  
Dew Point 31 °F    
Average Humidity 51    
Maximum Humidity 62    
Minimum Humidity 44    
Precipitation  
Precipitation 0.00 in 0.10 in 0.21 in (1998)
Month to date precipitation 0.30  
Year to date precipitation 34.84  
Sea Level Pressure  
Sea Level Pressure 30.00 in    
Wind  
Wind Speed 12 mph (NW)    
Max Wind Speed 17 mph    
Max Gust Speed 31 mph    
Visibility 10 miles    
Events      
T = Trace of Precipitation, MM = Missing Value Source: NWS Daily Summary

Daily Weather History Graph

Daily Weather History Graph

Search for Another Location

Airport or City:

Trip Planner

Search our weather history database for the weather conditions in past years. The results will help you decide how hot, cold, wet, or windy it might be!

Date:

Astronomy

Nov. 03, 2012 Rise Set
Actual Time 7:30 AM EDT 6:01 PM EDT
Civil Twilight 7:03 AM EDT 6:29 PM EDT
Nautical Twilight 6:32 AM EDT 7:00 PM EDT
Astronomical Twilight 6:01 AM EDT 7:30 PM EDT
Moon 9:42 PM EDT (11/3) 11:31 AM EDT (11/3)
Length of Visible Light 11h 25m
Length of Day
10h 31m
Waning Gibbous, 80% of the Moon is Illuminated
Nov 3
Waning Gibbous
Nov 6
Last Quarter
Nov 13
New
Nov 20
First Quarter
Nov 28
Full

Hourly Weather History & Observations

Time (EDT) Temp. Windchill Dew Point Humidity Pressure Visibility Wind Dir Wind Speed Gust Speed Precip Events Conditions
12:15 AM 50.0 °F - 30.2 °F 47% 29.92 in 10.0 mi NW 10.4 mph 25.3 mph N/A   Clear
12:35 AM 50.0 °F - 30.2 °F 47% 29.92 in 10.0 mi NW 13.8 mph 23.0 mph N/A   Clear
12:55 AM 48.2 °F - 32.0 °F 54% 29.93 in 10.0 mi NW 12.7 mph 19.6 mph N/A   Scattered Clouds
1:15 AM 48.2 °F - 32.0 °F 54% 29.93 in 10.0 mi NW 12.7 mph 17.3 mph N/A   Scattered Clouds
1:35 AM 48.2 °F - 32.0 °F 54% 29.93 in 10.0 mi NW 15.0 mph 21.9 mph N/A   Scattered Clouds
1:55 AM 48.2 °F - 32.0 °F 54% 29.93 in 10.0 mi NW 10.4 mph 19.6 mph N/A   Scattered Clouds
2:16 AM 48.2 °F - 32.0 °F 54% 29.93 in 10.0 mi NW 11.5 mph 21.9 mph N/A   Scattered Clouds
2:35 AM 48.2 °F - 32.0 °F 54% 29.93 in 10.0 mi NNW 8.1 mph 18.4 mph N/A   Scattered Clouds
2:55 AM 48.2 °F - 30.2 °F 50% 29.93 in 10.0 mi NW 10.4 mph 19.6 mph N/A   Scattered Clouds
3:15 AM 48.2 °F - 32.0 °F 54% 29.93 in 10.0 mi NNW 15.0 mph 20.7 mph N/A   Clear
3:35 AM 48.2 °F - 32.0 °F 54% 29.93 in 10.0 mi NW 11.5 mph 19.6 mph N/A   Clear
3:56 AM 48.2 °F - 32.0 °F 54% 29.93 in 10.0 mi NNW 10.4 mph 20.7 mph N/A   Clear
4:15 AM 48.2 °F - 32.0 °F 54% 29.93 in 10.0 mi NW 12.7 mph 18.4 mph N/A   Scattered Clouds
4:35 AM 48.2 °F - 33.8 °F 58% 29.93 in 10.0 mi NW 9.2 mph 20.7 mph N/A   Mostly Cloudy
4:55 AM 48.2 °F - 32.0 °F 54% 29.94 in 10.0 mi NW 13.8 mph 23.0 mph N/A   Overcast
5:16 AM 46.4 °F 41.1 °F 30.2 °F 53% 29.95 in 10.0 mi NW 11.5 mph 19.6 mph N/A   Mostly Cloudy
5:35 AM 48.2 °F - 30.2 °F 50% 29.95 in 10.0 mi NW 11.5 mph 25.3 mph N/A   Mostly Cloudy
5:55 AM 46.4 °F 41.9 °F 30.2 °F 53% 29.95 in 10.0 mi NNW 9.2 mph 21.9 mph N/A   Overcast
6:15 AM 48.2 °F - 30.2 °F 50% 29.96 in 10.0 mi NW 16.1 mph 23.0 mph N/A   Mostly Cloudy
6:36 AM 48.2 °F - 30.2 °F 50% 29.96 in 10.0 mi NNW 15.0 mph 21.9 mph N/A   Mostly Cloudy
6:55 AM 48.2 °F - 30.2 °F 50% 29.97 in 10.0 mi NW 13.8 mph 20.7 mph N/A   Overcast
7:15 AM 48.2 °F - 30.2 °F 50% 29.97 in 10.0 mi NW 17.3 mph 26.5 mph N/A   Overcast
7:35 AM 48.2 °F - 28.4 °F 46% 29.98 in 10.0 mi NW 12.7 mph 21.9 mph N/A   Overcast
7:55 AM 48.2 °F - 28.4 °F 46% 29.99 in 10.0 mi NW 10.4 mph 16.1 mph N/A   Overcast
8:15 AM 48.2 °F - 30.2 °F 50% 30.00 in 10.0 mi NW 12.7 mph 31.1 mph N/A   Overcast
8:36 AM 48.2 °F - 28.4 °F 46% 30.00 in 10.0 mi NW 15.0 mph 24.2 mph N/A   Overcast
8:55 AM 48.2 °F - 28.4 °F 46% 30.01 in 10.0 mi NW 13.8 mph 26.5 mph N/A   Overcast
9:15 AM 48.2 °F - 30.2 °F 50% 30.01 in 10.0 mi NW 17.3 mph 24.2 mph N/A   Overcast
9:35 AM 48.2 °F - 30.2 °F 50% 30.01 in 10.0 mi NW 13.8 mph 25.3 mph N/A   Overcast
9:55 AM 48.2 °F - 30.2 °F 50% 30.01 in 10.0 mi NW 9.2 mph 23.0 mph N/A   Overcast
10:15 AM 48.2 °F - 30.2 °F 50% 30.01 in 10.0 mi NW 16.1 mph 23.0 mph N/A   Overcast
10:36 AM 48.2 °F - 30.2 °F 50% 30.01 in 10.0 mi NW 15.0 mph 24.2 mph N/A   Overcast
10:55 AM 48.2 °F - 30.2 °F 50% 30.01 in 10.0 mi NW 11.5 mph 25.3 mph N/A   Overcast
11:15 AM 48.2 °F - 30.2 °F 50% 30.01 in 10.0 mi NW 13.8 mph 21.9 mph N/A   Overcast
11:35 AM 48.2 °F - 30.2 °F 50% 30.01 in 10.0 mi NNW 13.8 mph 24.2 mph N/A   Overcast
11:55 AM 48.2 °F - 30.2 °F 50% 30.01 in 10.0 mi NNW 11.5 mph 24.2 mph N/A   Overcast
12:15 PM 48.2 °F - 32.0 °F 54% 30.00 in 10.0 mi NW 12.7 mph 20.7 mph N/A   Overcast
12:35 PM 50.0 °F - 30.2 °F 47% 30.00 in 10.0 mi NW 16.1 mph 27.6 mph N/A   Overcast
12:55 PM 50.0 °F - 30.2 °F 47% 30.00 in 10.0 mi NW 12.7 mph 24.2 mph N/A   Overcast
1:16 PM 50.0 °F - 30.2 °F 47% 29.99 in 10.0 mi NNW 15.0 mph 21.9 mph N/A   Overcast
1:35 PM 51.8 °F - 30.2 °F 44% 30.00 in 10.0 mi NW 12.7 mph 21.9 mph N/A   Overcast
1:55 PM 51.8 °F - 30.2 °F 44% 30.00 in 10.0 mi NW 10.4 mph 21.9 mph N/A   Overcast
2:15 PM 51.8 °F - 32.0 °F 47% 29.99 in 10.0 mi NW 13.8 mph 24.2 mph N/A   Overcast
2:35 PM 51.8 °F - 30.2 °F 44% 29.99 in 10.0 mi NW 10.4 mph 25.3 mph N/A   Overcast
2:55 PM 51.8 °F - 32.0 °F 47% 29.99 in 10.0 mi NW 12.7 mph 21.9 mph N/A   Overcast
3:15 PM 51.8 °F - 30.2 °F 44% 29.99 in 10.0 mi NW 9.2 mph 25.3 mph N/A   Overcast
3:35 PM 51.8 °F - 32.0 °F 47% 30.00 in 10.0 mi NW 11.5 mph 19.6 mph N/A   Overcast
3:55 PM 51.8 °F - 32.0 °F 47% 30.00 in 10.0 mi NW 12.7 mph 18.4 mph N/A   Overcast
4:15 PM 51.8 °F - 33.8 °F 50% 30.00 in 10.0 mi NW 13.8 mph 19.6 mph N/A   Overcast
4:35 PM 51.8 °F - 32.0 °F 47% 30.00 in 10.0 mi NW 12.7 mph 23.0 mph N/A   Overcast
4:55 PM 51.8 °F - 33.8 °F 50% 30.00 in 10.0 mi NW 12.7 mph 21.9 mph N/A   Overcast
5:15 PM 51.8 °F - 33.8 °F 50% 30.01 in 10.0 mi NW 10.4 mph 18.4 mph N/A   Overcast
5:35 PM 51.8 °F - 33.8 °F 50% 30.01 in 10.0 mi NW 10.4 mph 19.6 mph N/A   Overcast
5:55 PM 51.8 °F - 33.8 °F 50% 30.01 in 10.0 mi NNW 8.1 mph 16.1 mph N/A   Overcast
6:15 PM 50.0 °F - 33.8 °F 54% 30.02 in 10.0 mi NW 9.2 mph - N/A   Mostly Cloudy
6:35 PM 50.0 °F - 33.8 °F 54% 30.03 in 10.0 mi NW 11.5 mph 17.3 mph N/A   Overcast
6:56 PM 50.0 °F - 33.8 °F 54% 30.04 in 10.0 mi NW 6.9 mph 18.4 mph N/A   Overcast
7:15 PM 50.0 °F - 33.8 °F 54% 30.04 in 10.0 mi NW 6.9 mph 18.4 mph N/A   Overcast
7:35 PM 48.2 °F - 32.0 °F 54% 30.05 in 10.0 mi NW 9.2 mph - N/A   Scattered Clouds
7:55 PM 48.2 °F - 33.8 °F 58% 30.05 in 10.0 mi NW 10.4 mph - N/A   Clear
8:15 PM 48.2 °F - 32.0 °F 54% 30.05 in 10.0 mi NW 10.4 mph - N/A   Clear
8:35 PM 48.2 °F - 33.8 °F 58% 30.05 in 10.0 mi NW 6.9 mph - N/A   Clear
8:55 PM 48.2 °F - 33.8 °F 58% 30.05 in 10.0 mi NW 6.9 mph - N/A   Clear
9:15 PM 48.2 °F - 32.0 °F 54% 30.06 in 10.0 mi NW 9.2 mph - N/A   Clear
9:35 PM 48.2 °F - 33.8 °F 58% 30.06 in 10.0 mi NW 9.2 mph - N/A   Clear
9:55 PM 46.4 °F 42.4 °F 33.8 °F 62% 30.06 in 10.0 mi NW 8.1 mph - N/A   Clear
10:15 PM 48.2 °F - 32.0 °F 54% 30.07 in 10.0 mi NW 6.9 mph - N/A   Clear
10:35 PM 48.2 °F - 30.2 °F 50% 30.07 in 10.0 mi NW 8.1 mph - N/A   Mostly Cloudy
10:55 PM 48.2 °F - 32.0 °F 54% 30.07 in 10.0 mi NNW 8.1 mph - N/A   Overcast
11:15 PM 48.2 °F - 30.2 °F 50% 30.07 in 10.0 mi NNW 8.1 mph - N/A   Overcast
11:35 PM 48.2 °F - 32.0 °F 54% 30.07 in 10.0 mi NW 11.5 mph 17.3 mph N/A   Overcast
11:55 PM 48.2 °F - 32.0 °F 54% 30.07 in 10.0 mi NW 5.8 mph - N/A   Overcast